createdAt,value
2023-02-23T00:01:45.383Z,-0.47
2023-02-23T00:05:47.375Z,-0.38
2023-02-23T00:09:50.792Z,-0.40
2023-02-23T00:13:52.770Z,-0.38
2023-02-23T00:17:55.750Z,-0.41
2023-02-23T00:21:58.872Z,-0.50
2023-02-23T00:26:04.277Z,-0.56
2023-02-23T00:30:07.251Z,-0.57
2023-02-23T00:34:11.493Z,-0.55
2023-02-23T00:38:13.975Z,-0.59
2023-02-23T00:42:16.000Z,-0.83
2023-02-23T00:46:21.307Z,-0.73
2023-02-23T00:50:23.492Z,-0.66
2023-02-23T00:54:25.998Z,-0.69
2023-02-23T00:58:30.476Z,-0.69
2023-02-23T01:02:32.705Z,-0.64
2023-02-23T01:06:37.637Z,-0.65
2023-02-23T01:10:42.623Z,-0.59
2023-02-23T01:14:47.711Z,-0.64
2023-02-23T01:18:49.755Z,-0.60
2023-02-23T01:22:52.461Z,-0.64
2023-02-23T01:26:54.608Z,-0.55
2023-02-23T01:30:56.615Z,-0.45
2023-02-23T01:34:58.678Z,-0.47
2023-02-23T01:39:00.784Z,-0.48
2023-02-23T01:43:25.975Z,-0.39
2023-02-23T01:47:28.091Z,-0.45
2023-02-23T01:51:34.060Z,-0.41
2023-02-23T01:55:37.964Z,-0.48
2023-02-23T01:59:43.985Z,-0.44
2023-02-23T02:03:49.786Z,-0.59
2023-02-23T02:07:59.074Z,-0.72
2023-02-23T02:12:02.602Z,-0.68
2023-02-23T02:16:29.038Z,-0.68
2023-02-23T02:20:44.742Z,-0.64
2023-02-23T02:25:15.557Z,-0.66
2023-02-23T02:29:26.374Z,-0.68
2023-02-23T02:34:00.217Z,-0.92
2023-02-23T02:38:53.675Z,-1.11
2023-02-23T02:43:22.809Z,-1.16
2023-02-23T02:47:40.578Z,-1.15
2023-02-23T02:51:55.828Z,-1.09
2023-02-23T02:56:00.443Z,-1.00
2023-02-23T03:00:21.318Z,-0.96
2023-02-23T03:04:44.054Z,-0.99
2023-02-23T03:09:08.680Z,-1.03
2023-02-23T03:13:42.812Z,-1.11
2023-02-23T03:18:17.761Z,-1.21
2023-02-23T03:22:45.295Z,-1.33
2023-02-23T03:27:17.574Z,-1.45
2023-02-23T03:32:05.492Z,-1.51
2023-02-23T03:36:36.100Z,-1.58
2023-02-23T03:41:00.978Z,-1.68
2023-02-23T03:45:26.976Z,-1.72
2023-02-23T03:49:53.201Z,-1.77
2023-02-23T03:54:49.136Z,-1.75
2023-02-23T03:59:21.309Z,-1.82
2023-02-23T04:03:45.680Z,-1.69
2023-02-23T04:08:07.960Z,-1.54
2023-02-23T04:12:56.166Z,-1.42
2023-02-23T04:16:58.964Z,-1.31
2023-02-23T04:21:01.586Z,-1.15
2023-02-23T04:25:06.108Z,-1.09
2023-02-23T04:29:08.333Z,-1.04
2023-02-23T04:33:11.465Z,-0.91
2023-02-23T04:37:13.947Z,-0.83
2023-02-23T04:41:16.022Z,-0.91
2023-02-23T04:45:18.269Z,-0.78
2023-02-23T04:49:20.502Z,-0.72
2023-02-23T04:53:22.592Z,-0.67
2023-02-23T04:57:24.496Z,-0.64
2023-02-23T05:01:27.191Z,-0.66
2023-02-23T05:05:29.171Z,-0.65
2023-02-23T05:09:31.851Z,-0.61
2023-02-23T05:13:33.751Z,-0.71
2023-02-23T05:17:38.380Z,-0.78
2023-02-23T05:21:41.315Z,-0.78
2023-02-23T05:25:43.239Z,-0.76
2023-02-23T05:29:45.173Z,-0.66
2023-02-23T05:33:47.090Z,-0.66
2023-02-23T05:37:49.028Z,-0.62
2023-02-23T05:41:51.031Z,-0.70
2023-02-23T05:45:52.979Z,-0.63
2023-02-23T05:49:54.534Z,-0.59
2023-02-23T05:53:56.655Z,-0.64
2023-02-23T05:57:58.641Z,-0.53
2023-02-23T06:02:00.590Z,-0.50
2023-02-23T06:06:02.547Z,-0.43
2023-02-23T06:10:05.669Z,-0.42
2023-02-23T06:14:07.575Z,-0.28
2023-02-23T06:18:10.060Z,-0.32
2023-02-23T06:22:12.464Z,-0.21
2023-02-23T06:26:14.527Z,-0.19
2023-02-23T06:30:16.643Z,-0.12
2023-02-23T06:34:19.041Z,-0.13
2023-02-23T06:38:21.977Z,-0.12
2023-02-23T06:42:24.515Z,-0.15
2023-02-23T06:46:26.603Z,0.07
2023-02-23T06:50:28.736Z,0.08
2023-02-23T06:54:30.699Z,0.15
2023-02-23T06:58:32.759Z,0.06
2023-02-23T07:02:36.542Z,0.26
2023-02-23T07:06:39.092Z,0.23
2023-02-23T07:10:41.150Z,0.35
2023-02-23T07:14:43.241Z,0.39
2023-02-23T07:18:45.171Z,0.26
2023-02-23T07:22:47.196Z,0.31
2023-02-23T07:26:49.512Z,0.48
2023-02-23T07:30:51.579Z,0.51
2023-02-23T07:34:54.033Z,0.79
2023-02-23T07:38:56.055Z,0.86
2023-02-23T07:42:58.556Z,0.76
2023-02-23T07:47:01.105Z,0.99
2023-02-23T07:51:10.127Z,0.98
2023-02-23T07:55:12.661Z,1.03
2023-02-23T07:59:15.315Z,1.00
2023-02-23T08:03:17.528Z,1.19
2023-02-23T08:07:20.322Z,1.51
2023-02-23T08:11:22.662Z,1.48
2023-02-23T08:15:25.060Z,1.38
2023-02-23T08:19:27.791Z,1.56
2023-02-23T08:23:31.615Z,1.87
2023-02-23T08:27:35.504Z,1.91
2023-02-23T08:31:37.847Z,1.90
2023-02-23T08:35:40.084Z,2.08
2023-02-23T08:39:43.612Z,2.00
2023-02-23T08:43:45.734Z,2.22
2023-02-23T08:47:47.717Z,2.07
2023-02-23T08:51:50.374Z,2.38
2023-02-23T08:55:59.265Z,2.38
2023-02-23T09:00:02.339Z,2.47
2023-02-23T09:04:05.738Z,2.54
2023-02-23T09:08:07.836Z,2.65
2023-02-23T09:12:10.216Z,2.69
2023-02-23T09:16:13.552Z,2.89
2023-02-23T09:20:17.413Z,3.12
2023-02-23T09:24:21.748Z,2.85
2023-02-23T09:28:23.847Z,3.27
2023-02-23T09:32:26.048Z,3.36
2023-02-23T09:36:29.387Z,3.48
2023-02-23T09:40:46.359Z,3.52
2023-02-23T09:45:03.915Z,3.80
2023-02-23T09:49:16.143Z,3.84
2023-02-23T09:53:31.632Z,3.90
2023-02-23T09:57:43.619Z,4.07
2023-02-23T10:01:48.386Z,4.08
2023-02-23T10:05:59.712Z,3.82
2023-02-23T10:10:25.341Z,3.59
2023-02-23T10:14:42.689Z,3.88
2023-02-23T10:19:42.871Z,3.91
2023-02-23T10:23:54.033Z,4.02
2023-02-23T10:27:56.800Z,4.10
2023-02-23T10:32:05.344Z,4.17
2023-02-23T10:36:19.382Z,4.30
2023-02-23T10:40:24.538Z,4.42
2023-02-23T10:44:28.607Z,4.66
2023-02-23T10:48:43.325Z,4.69
2023-02-23T10:52:47.996Z,4.74
2023-02-23T10:56:50.554Z,4.90
2023-02-23T11:01:01.070Z,4.87
2023-02-23T11:05:06.064Z,5.00
2023-02-23T11:09:43.370Z,5.09
2023-02-23T11:13:48.466Z,5.07
2023-02-23T11:18:05.219Z,5.37
2023-02-23T11:22:10.526Z,5.33
2023-02-23T11:26:24.358Z,5.33
2023-02-23T11:30:38.115Z,5.22
2023-02-23T11:34:41.135Z,5.52
2023-02-23T11:38:45.902Z,5.69
2023-02-23T11:43:15.201Z,5.63
2023-02-23T11:47:21.652Z,5.55
2023-02-23T11:51:32.120Z,5.43
2023-02-23T11:55:37.500Z,5.35
2023-02-23T11:59:41.328Z,5.54
2023-02-23T12:03:56.640Z,5.59
2023-02-23T12:08:06.842Z,5.79
2023-02-23T12:12:18.222Z,5.73
2023-02-23T12:16:28.751Z,5.49
2023-02-23T12:20:36.262Z,5.52
2023-02-23T12:24:44.093Z,5.72
2023-02-23T12:28:59.549Z,5.66
2023-02-23T12:33:30.015Z,5.81
2023-02-23T12:37:38.811Z,5.81
2023-02-23T12:41:48.762Z,5.54
2023-02-23T12:45:55.928Z,5.63
2023-02-23T12:50:13.137Z,5.78
2023-02-23T12:54:16.632Z,5.70
2023-02-23T12:58:29.315Z,5.79
2023-02-23T13:02:40.938Z,5.84
2023-02-23T13:07:10.405Z,5.65
2023-02-23T13:11:26.375Z,5.61
2023-02-23T13:15:54.339Z,5.69
2023-02-23T13:20:01.189Z,5.61
2023-02-23T13:24:27.253Z,5.72
2023-02-23T13:28:52.332Z,5.62
2023-02-23T13:32:55.320Z,5.74
2023-02-23T13:37:00.158Z,5.66
2023-02-23T13:41:24.460Z,5.78
2023-02-23T13:45:36.416Z,5.74
2023-02-23T13:49:46.485Z,5.64
2023-02-23T13:53:57.505Z,5.81
2023-02-23T13:58:15.280Z,5.68
2023-02-23T14:02:40.872Z,5.61
2023-02-23T14:06:53.844Z,5.72
2023-02-23T14:10:57.346Z,5.77
2023-02-23T14:15:28.317Z,5.62
2023-02-23T14:19:35.629Z,5.54
2023-02-23T14:23:52.848Z,5.57
2023-02-23T14:28:01.522Z,5.44
2023-02-23T14:32:12.661Z,5.53
2023-02-23T14:36:23.873Z,5.49
2023-02-23T14:40:33.902Z,5.50
2023-02-23T14:44:43.346Z,5.46
2023-02-23T14:49:00.213Z,5.54
2023-02-23T14:53:04.749Z,5.48
2023-02-23T14:57:19.422Z,5.48
2023-02-23T15:01:38.684Z,5.40
2023-02-23T15:05:47.642Z,5.30
2023-02-23T15:09:52.312Z,5.31
2023-02-23T15:13:54.819Z,5.31
2023-02-23T15:18:01.248Z,5.26
2023-02-23T15:22:04.607Z,5.28
2023-02-23T15:26:40.087Z,5.09
2023-02-23T15:30:47.719Z,5.02
2023-02-23T15:34:51.470Z,4.94
2023-02-23T15:38:56.335Z,4.76
2023-02-23T15:43:01.729Z,4.62
2023-02-23T15:47:06.364Z,4.55
2023-02-23T15:51:22.956Z,4.36
2023-02-23T15:55:28.844Z,4.26
2023-02-23T15:59:35.819Z,4.12
2023-02-23T16:03:44.157Z,3.95
2023-02-23T16:07:46.265Z,3.76
2023-02-23T16:11:55.044Z,3.67
2023-02-23T16:15:57.527Z,3.53
2023-02-23T16:20:18.817Z,3.42
2023-02-23T16:24:25.515Z,3.30
2023-02-23T16:28:31.162Z,3.19
2023-02-23T16:32:37.005Z,3.01
2023-02-23T16:36:40.230Z,2.95
2023-02-23T16:40:42.546Z,2.88
2023-02-23T16:44:47.169Z,2.70
2023-02-23T16:48:49.336Z,2.55
2023-02-23T16:52:55.025Z,2.37
2023-02-23T16:56:57.460Z,2.37
2023-02-23T17:00:59.514Z,2.32
2023-02-23T17:05:01.574Z,2.26
2023-02-23T17:09:03.890Z,2.23
2023-02-23T17:13:11.139Z,2.15
2023-02-23T17:17:17.624Z,2.14
2023-02-23T17:21:23.787Z,2.15
2023-02-23T17:25:26.593Z,2.13
2023-02-23T17:29:28.693Z,2.11
2023-02-23T17:33:34.767Z,2.07
2023-02-23T17:37:39.763Z,2.03
2023-02-23T17:41:41.720Z,2.03
2023-02-23T17:45:43.691Z,2.08
2023-02-23T17:49:45.598Z,2.20
2023-02-23T17:53:47.736Z,2.28
2023-02-23T17:57:49.674Z,2.38
2023-02-23T18:01:51.682Z,2.35
2023-02-23T18:05:53.322Z,2.29
2023-02-23T18:09:55.326Z,2.31
2023-02-23T18:13:57.306Z,2.43
2023-02-23T18:18:01.378Z,2.51
2023-02-23T18:22:03.451Z,2.56
2023-02-23T18:26:07.725Z,2.61
2023-02-23T18:30:10.847Z,2.58
2023-02-23T18:34:12.961Z,2.58
2023-02-23T18:38:15.833Z,2.59
2023-02-23T18:42:18.021Z,2.59
2023-02-23T18:46:19.984Z,2.51
2023-02-23T18:50:22.864Z,2.59
2023-02-23T18:54:26.660Z,2.50
2023-02-23T18:58:28.790Z,2.60
2023-02-23T19:02:30.704Z,2.58
2023-02-23T19:06:33.940Z,2.59
2023-02-23T19:10:36.339Z,2.64
2023-02-23T19:14:49.249Z,2.66
2023-02-23T19:18:52.248Z,2.64
2023-02-23T19:22:54.462Z,2.60
2023-02-23T19:26:56.490Z,2.54
2023-02-23T19:31:06.960Z,2.55
2023-02-23T19:35:14.757Z,2.55
2023-02-23T19:39:16.951Z,2.42
2023-02-23T19:43:18.887Z,2.47
2023-02-23T19:47:20.938Z,2.43
2023-02-23T19:51:23.938Z,2.46
2023-02-23T19:55:26.208Z,2.43
2023-02-23T19:59:28.698Z,2.31
2023-02-23T20:03:30.822Z,2.29
2023-02-23T20:07:32.754Z,2.24
2023-02-23T20:11:34.716Z,2.20
2023-02-23T20:15:37.096Z,2.20
2023-02-23T20:19:39.337Z,2.17
2023-02-23T20:23:43.032Z,1.99
2023-02-23T20:27:45.119Z,1.86
2023-02-23T20:31:51.393Z,1.80
2023-02-23T20:35:53.338Z,1.59
2023-02-23T20:39:55.256Z,1.55
2023-02-23T20:43:57.799Z,1.46
2023-02-23T20:47:59.930Z,1.36
2023-02-23T20:52:03.163Z,1.31
2023-02-23T20:56:06.771Z,1.22
2023-02-23T21:00:09.733Z,1.08
2023-02-23T21:04:13.141Z,1.06
2023-02-23T21:08:15.788Z,1.03
2023-02-23T21:12:17.718Z,0.97
2023-02-23T21:16:23.654Z,0.93
2023-02-23T21:20:27.482Z,0.93
2023-02-23T21:24:33.691Z,0.93
2023-02-23T21:28:35.729Z,0.93
2023-02-23T21:32:41.367Z,1.03
2023-02-23T21:36:43.404Z,0.99
2023-02-23T21:40:45.465Z,1.01
2023-02-23T21:44:48.166Z,0.98
2023-02-23T21:48:50.255Z,0.98
2023-02-23T21:52:56.012Z,0.97
2023-02-23T21:56:58.119Z,1.06
2023-02-23T22:01:00.080Z,1.13
2023-02-23T22:05:02.059Z,1.11
2023-02-23T22:09:05.900Z,1.10
2023-02-23T22:13:08.044Z,1.15
2023-02-23T22:17:11.264Z,1.19
2023-02-23T22:21:13.942Z,1.24
2023-02-23T22:25:17.324Z,1.27
2023-02-23T22:29:19.750Z,1.28
2023-02-23T22:33:23.507Z,1.28
2023-02-23T22:37:29.901Z,1.26
2023-02-23T22:41:31.936Z,1.25
2023-02-23T22:45:35.786Z,1.30
2023-02-23T22:49:37.714Z,1.40
2023-02-23T22:53:39.748Z,1.48
2023-02-23T22:57:41.691Z,1.68
2023-02-23T23:01:43.946Z,1.72
2023-02-23T23:05:50.996Z,1.86
2023-02-23T23:09:53.396Z,1.87
2023-02-23T23:14:02.105Z,1.95
2023-02-23T23:18:06.654Z,1.81
2023-02-23T23:22:14.258Z,1.96
2023-02-23T23:26:20.063Z,1.93
2023-02-23T23:30:25.903Z,1.91
2023-02-23T23:34:28.231Z,1.86
2023-02-23T23:38:32.892Z,1.95
2023-02-23T23:42:34.911Z,1.97
2023-02-23T23:46:38.587Z,2.05
2023-02-23T23:50:40.635Z,2.17
2023-02-23T23:54:42.852Z,2.15
2023-02-23T23:58:44.858Z,2.22
